sensor_id;sensor_type;location;lat;lon;timestamp;P1;durP1;ratioP1;P2;durP2;ratioP2
58272;SDS011;44075;42.436;18.514;2022-09-30T15:54:44;17.85;;;4.70;;
58272;SDS011;44075;42.436;18.514;2022-09-30T15:57:35;21.73;;;5.18;;
58272;SDS011;44075;42.436;18.514;2022-09-30T16:00:06;14.50;;;3.83;;
58272;SDS011;44075;42.436;18.514;2022-09-30T16:02:33;17.10;;;4.28;;
58272;SDS011;44075;42.436;18.514;2022-09-30T16:04:59;16.35;;;3.80;;
58272;SDS011;44075;42.436;18.514;2022-09-30T16:07:26;15.70;;;4.75;;
58272;SDS011;44075;42.436;18.514;2022-09-30T16:09:53;16.35;;;3.65;;
58272;SDS011;44075;42.436;18.514;2022-09-30T16:12:21;15.73;;;3.92;;
58272;SDS011;44075;42.436;18.514;2022-09-30T16:14:57;14.15;;;4.07;;
58272;SDS011;44075;42.436;18.514;2022-09-30T16:17:25;15.52;;;4.43;;
58272;SDS011;44075;42.436;18.514;2022-09-30T16:19:56;15.90;;;4.53;;
58272;SDS011;44075;42.436;18.514;2022-09-30T16:27:36;17.45;;;4.95;;
58272;SDS011;44075;42.436;18.514;2022-09-30T16:30:03;17.25;;;4.18;;
58272;SDS011;44075;42.436;18.514;2022-09-30T16:32:31;16.27;;;3.55;;
58272;SDS011;44075;42.436;18.514;2022-09-30T16:34:58;14.60;;;3.85;;
58272;SDS011;44075;42.436;18.514;2022-09-30T16:37:24;14.30;;;4.00;;
58272;SDS011;44075;42.436;18.514;2022-09-30T16:39:54;16.98;;;4.35;;
58272;SDS011;44075;42.436;18.514;2022-09-30T16:42:20;12.75;;;3.60;;
58272;SDS011;44075;42.436;18.514;2022-09-30T16:44:47;19.08;;;4.25;;
58272;SDS011;44075;42.436;18.514;2022-09-30T16:47:13;18.00;;;4.70;;
58272;SDS011;44075;42.436;18.514;2022-09-30T16:49:40;18.05;;;4.20;;
58272;SDS011;44075;42.436;18.514;2022-09-30T16:52:08;13.05;;;3.40;;
58272;SDS011;44075;42.436;18.514;2022-09-30T16:54:34;13.00;;;3.58;;
58272;SDS011;44075;42.436;18.514;2022-09-30T16:57:00;17.15;;;3.88;;
58272;SDS011;44075;42.436;18.514;2022-09-30T16:59:26;11.50;;;3.10;;
58272;SDS011;44075;42.436;18.514;2022-09-30T17:01:52;14.20;;;3.70;;
58272;SDS011;44075;42.436;18.514;2022-09-30T17:04:18;15.05;;;4.18;;
58272;SDS011;44075;42.436;18.514;2022-09-30T17:06:44;13.52;;;3.25;;
58272;SDS011;44075;42.436;18.514;2022-09-30T17:09:11;13.25;;;4.32;;
58272;SDS011;44075;42.436;18.514;2022-09-30T17:11:37;15.35;;;3.92;;
58272;SDS011;44075;42.436;18.514;2022-09-30T17:14:03;13.75;;;4.00;;
58272;SDS011;44075;42.436;18.514;2022-09-30T17:16:29;15.00;;;3.55;;
58272;SDS011;44075;42.436;18.514;2022-09-30T17:18:56;13.13;;;3.65;;
58272;SDS011;44075;42.436;18.514;2022-09-30T17:21:23;14.68;;;3.50;;
58272;SDS011;44075;42.436;18.514;2022-09-30T17:23:50;15.10;;;3.78;;
58272;SDS011;44075;42.436;18.514;2022-09-30T17:26:16;14.75;;;3.85;;
58272;SDS011;44075;42.436;18.514;2022-09-30T17:28:42;14.70;;;3.45;;
58272;SDS011;44075;42.436;18.514;2022-09-30T17:31:09;12.15;;;3.83;;
58272;SDS011;44075;42.436;18.514;2022-09-30T17:33:36;15.35;;;3.50;;
58272;SDS011;44075;42.436;18.514;2022-09-30T17:36:04;11.10;;;3.78;;
58272;SDS011;44075;42.436;18.514;2022-09-30T17:38:30;12.80;;;3.67;;
58272;SDS011;44075;42.436;18.514;2022-09-30T17:40:57;11.40;;;3.35;;
58272;SDS011;44075;42.436;18.514;2022-09-30T17:46:09;18.83;;;4.15;;
58272;SDS011;44075;42.436;18.514;2022-09-30T17:48:35;18.73;;;4.88;;
58272;SDS011;44075;42.436;18.514;2022-09-30T17:51:03;15.15;;;3.50;;
58272;SDS011;44075;42.436;18.514;2022-09-30T17:53:33;16.25;;;3.97;;
58272;SDS011;44075;42.436;18.514;2022-09-30T17:56:02;13.55;;;3.45;;
58272;SDS011;44075;42.436;18.514;2022-09-30T17:58:30;14.82;;;3.58;;
58272;SDS011;44075;42.436;18.514;2022-09-30T18:00:57;13.15;;;3.33;;
58272;SDS011;44075;42.436;18.514;2022-09-30T18:03:23;12.15;;;3.33;;
58272;SDS011;44075;42.436;18.514;2022-09-30T18:05:56;17.00;;;3.70;;
58272;SDS011;44075;42.436;18.514;2022-09-30T18:08:22;15.18;;;3.92;;
58272;SDS011;44075;42.436;18.514;2022-09-30T18:10:49;13.32;;;3.80;;
58272;SDS011;44075;42.436;18.514;2022-09-30T18:13:19;10.98;;;3.40;;
58272;SDS011;44075;42.436;18.514;2022-09-30T18:15:45;15.55;;;3.25;;
58272;SDS011;44075;42.436;18.514;2022-09-30T18:18:12;10.23;;;3.03;;
58272;SDS011;44075;42.436;18.514;2022-09-30T18:20:45;15.15;;;3.75;;
58272;SDS011;44075;42.436;18.514;2022-09-30T18:23:12;12.40;;;3.75;;
58272;SDS011;44075;42.436;18.514;2022-09-30T18:25:38;14.95;;;4.00;;
58272;SDS011;44075;42.436;18.514;2022-09-30T18:28:07;11.75;;;3.47;;
58272;SDS011;44075;42.436;18.514;2022-09-30T18:30:34;14.60;;;3.80;;
58272;SDS011;44075;42.436;18.514;2022-09-30T18:33:00;13.13;;;3.38;;
58272;SDS011;44075;42.436;18.514;2022-09-30T18:35:28;14.52;;;3.95;;
58272;SDS011;44075;42.436;18.514;2022-09-30T18:37:56;12.18;;;3.42;;
58272;SDS011;44075;42.436;18.514;2022-09-30T18:40:23;14.75;;;3.33;;
58272;SDS011;44075;42.436;18.514;2022-09-30T18:43:00;13.65;;;3.78;;
58272;SDS011;44075;42.436;18.514;2022-09-30T18:45:27;14.43;;;3.40;;
58272;SDS011;44075;42.436;18.514;2022-09-30T18:47:55;17.75;;;3.45;;
58272;SDS011;44075;42.436;18.514;2022-09-30T18:50:21;14.18;;;4.22;;
58272;SDS011;44075;42.436;18.514;2022-09-30T18:52:49;12.07;;;3.63;;
58272;SDS011;44075;42.436;18.514;2022-09-30T18:55:16;16.48;;;3.55;;
58272;SDS011;44075;42.436;18.514;2022-09-30T18:57:42;12.27;;;3.50;;
58272;SDS011;44075;42.436;18.514;2022-09-30T19:00:12;16.83;;;3.55;;
58272;SDS011;44075;42.436;18.514;2022-09-30T19:02:41;12.32;;;3.08;;
58272;SDS011;44075;42.436;18.514;2022-09-30T19:05:09;12.65;;;3.05;;
58272;SDS011;44075;42.436;18.514;2022-09-30T19:07:36;15.25;;;3.40;;
58272;SDS011;44075;42.436;18.514;2022-09-30T19:10:05;12.25;;;3.70;;
58272;SDS011;44075;42.436;18.514;2022-09-30T19:12:32;15.88;;;3.50;;
58272;SDS011;44075;42.436;18.514;2022-09-30T19:15:00;13.13;;;2.88;;
58272;SDS011;44075;42.436;18.514;2022-09-30T19:17:27;14.77;;;3.45;;
58272;SDS011;44075;42.436;18.514;2022-09-30T19:19:56;11.00;;;2.90;;
58272;SDS011;44075;42.436;18.514;2022-09-30T19:22:24;15.40;;;3.55;;
58272;SDS011;44075;42.436;18.514;2022-09-30T19:24:50;11.48;;;3.15;;
58272;SDS011;44075;42.436;18.514;2022-09-30T19:27:16;10.30;;;2.78;;
58272;SDS011;44075;42.436;18.514;2022-09-30T19:29:42;9.48;;;2.60;;
58272;SDS011;44075;42.436;18.514;2022-09-30T19:32:08;13.43;;;2.85;;
58272;SDS011;44075;42.436;18.514;2022-09-30T19:34:39;13.55;;;3.28;;
58272;SDS011;44075;42.436;18.514;2022-09-30T19:37:06;10.98;;;3.03;;
58272;SDS011;44075;42.436;18.514;2022-09-30T19:39:32;14.45;;;3.22;;
58272;SDS011;44075;42.436;18.514;2022-09-30T19:42:00;11.80;;;3.72;;
58272;SDS011;44075;42.436;18.514;2022-09-30T19:44:26;11.40;;;3.28;;
58272;SDS011;44075;42.436;18.514;2022-09-30T19:46:52;10.45;;;2.75;;
58272;SDS011;44075;42.436;18.514;2022-09-30T19:49:19;13.32;;;2.70;;
58272;SDS011;44075;42.436;18.514;2022-09-30T19:51:48;10.60;;;3.33;;
58272;SDS011;44075;42.436;18.514;2022-09-30T19:54:14;11.77;;;3.08;;
58272;SDS011;44075;42.436;18.514;2022-09-30T19:56:40;12.65;;;3.10;;
58272;SDS011;44075;42.436;18.514;2022-09-30T19:59:06;12.43;;;3.13;;
58272;SDS011;44075;42.436;18.514;2022-09-30T20:01:32;11.68;;;2.85;;
58272;SDS011;44075;42.436;18.514;2022-09-30T20:03:59;12.30;;;3.35;;
58272;SDS011;44075;42.436;18.514;2022-09-30T20:06:28;9.50;;;2.80;;
58272;SDS011;44075;42.436;18.514;2022-09-30T20:08:55;11.35;;;2.97;;
58272;SDS011;44075;42.436;18.514;2022-09-30T20:11:23;9.98;;;2.78;;
58272;SDS011;44075;42.436;18.514;2022-09-30T20:13:51;11.45;;;3.28;;
58272;SDS011;44075;42.436;18.514;2022-09-30T20:16:37;9.68;;;2.30;;
58272;SDS011;44075;42.436;18.514;2022-09-30T20:19:04;9.68;;;2.60;;
58272;SDS011;44075;42.436;18.514;2022-09-30T20:21:30;10.82;;;2.97;;
58272;SDS011;44075;42.436;18.514;2022-09-30T20:23:56;9.20;;;2.95;;
58272;SDS011;44075;42.436;18.514;2022-09-30T20:26:24;12.30;;;2.92;;
58272;SDS011;44075;42.436;18.514;2022-09-30T20:28:54;13.38;;;3.45;;
58272;SDS011;44075;42.436;18.514;2022-09-30T20:31:21;16.92;;;2.53;;
58272;SDS011;44075;42.436;18.514;2022-09-30T20:33:47;14.48;;;2.97;;
58272;SDS011;44075;42.436;18.514;2022-09-30T20:36:18;11.32;;;2.42;;
58272;SDS011;44075;42.436;18.514;2022-09-30T20:38:48;12.07;;;3.47;;
58272;SDS011;44075;42.436;18.514;2022-09-30T20:41:14;12.15;;;2.90;;
58272;SDS011;44075;42.436;18.514;2022-09-30T20:43:40;10.70;;;2.40;;
58272;SDS011;44075;42.436;18.514;2022-09-30T20:46:08;10.90;;;3.38;;
58272;SDS011;44075;42.436;18.514;2022-09-30T20:48:35;10.50;;;2.95;;
58272;SDS011;44075;42.436;18.514;2022-09-30T20:51:05;11.82;;;2.70;;
58272;SDS011;44075;42.436;18.514;2022-09-30T20:53:31;9.25;;;2.55;;
58272;SDS011;44075;42.436;18.514;2022-09-30T20:56:00;8.85;;;2.35;;
58272;SDS011;44075;42.436;18.514;2022-09-30T20:58:31;9.90;;;2.15;;
58272;SDS011;44075;42.436;18.514;2022-09-30T21:01:01;7.97;;;2.30;;
58272;SDS011;44075;42.436;18.514;2022-09-30T21:03:28;12.63;;;2.72;;
58272;SDS011;44075;42.436;18.514;2022-09-30T21:05:55;9.48;;;2.85;;
58272;SDS011;44075;42.436;18.514;2022-09-30T21:08:22;9.05;;;2.47;;
58272;SDS011;44075;42.436;18.514;2022-09-30T21:10:48;11.88;;;2.65;;
58272;SDS011;44075;42.436;18.514;2022-09-30T21:13:14;10.27;;;3.00;;
58272;SDS011;44075;42.436;18.514;2022-09-30T21:15:41;10.43;;;2.28;;
58272;SDS011;44075;42.436;18.514;2022-09-30T21:18:07;9.15;;;2.45;;
58272;SDS011;44075;42.436;18.514;2022-09-30T21:20:53;9.80;;;2.63;;
58272;SDS011;44075;42.436;18.514;2022-09-30T21:23:32;8.82;;;2.78;;
58272;SDS011;44075;42.436;18.514;2022-09-30T21:26:03;10.75;;;2.65;;
58272;SDS011;44075;42.436;18.514;2022-09-30T21:28:29;11.80;;;2.35;;
58272;SDS011;44075;42.436;18.514;2022-09-30T21:30:56;12.07;;;2.13;;
58272;SDS011;44075;42.436;18.514;2022-09-30T21:33:23;10.65;;;2.20;;
58272;SDS011;44075;42.436;18.514;2022-09-30T21:36:09;10.60;;;2.42;;
58272;SDS011;44075;42.436;18.514;2022-09-30T21:38:35;9.15;;;2.50;;
58272;SDS011;44075;42.436;18.514;2022-09-30T21:41:03;8.20;;;2.60;;
58272;SDS011;44075;42.436;18.514;2022-09-30T21:43:29;10.82;;;2.30;;
58272;SDS011;44075;42.436;18.514;2022-09-30T21:46:00;10.50;;;2.42;;
58272;SDS011;44075;42.436;18.514;2022-09-30T21:48:26;9.10;;;2.50;;
58272;SDS011;44075;42.436;18.514;2022-09-30T21:50:54;8.95;;;2.30;;
58272;SDS011;44075;42.436;18.514;2022-09-30T21:53:20;11.00;;;2.60;;
58272;SDS011;44075;42.436;18.514;2022-09-30T21:55:47;10.75;;;2.30;;
58272;SDS011;44075;42.436;18.514;2022-09-30T21:58:14;9.48;;;2.40;;
58272;SDS011;44075;42.436;18.514;2022-09-30T22:00:41;9.30;;;2.10;;
58272;SDS011;44075;42.436;18.514;2022-09-30T22:03:08;10.88;;;2.42;;
58272;SDS011;44075;42.436;18.514;2022-09-30T22:05:34;7.75;;;2.13;;
58272;SDS011;44075;42.436;18.514;2022-09-30T22:08:01;8.38;;;2.33;;
58272;SDS011;44075;42.436;18.514;2022-09-30T22:10:27;10.85;;;2.40;;
58272;SDS011;44075;42.436;18.514;2022-09-30T22:12:53;12.15;;;2.05;;
58272;SDS011;44075;42.436;18.514;2022-09-30T22:15:21;9.55;;;2.20;;
58272;SDS011;44075;42.436;18.514;2022-09-30T22:17:51;11.77;;;2.35;;
58272;SDS011;44075;42.436;18.514;2022-09-30T22:20:17;10.93;;;2.60;;
58272;SDS011;44075;42.436;18.514;2022-09-30T22:22:44;8.60;;;2.47;;
58272;SDS011;44075;42.436;18.514;2022-09-30T22:25:16;11.68;;;2.60;;
58272;SDS011;44075;42.436;18.514;2022-09-30T22:27:46;11.10;;;2.30;;
58272;SDS011;44075;42.436;18.514;2022-09-30T22:30:12;13.20;;;2.60;;
58272;SDS011;44075;42.436;18.514;2022-09-30T22:32:38;8.55;;;2.03;;
58272;SDS011;44075;42.436;18.514;2022-09-30T22:35:04;9.68;;;2.30;;
58272;SDS011;44075;42.436;18.514;2022-09-30T22:37:49;10.98;;;2.30;;
58272;SDS011;44075;42.436;18.514;2022-09-30T22:40:34;8.65;;;2.40;;
58272;SDS011;44075;42.436;18.514;2022-09-30T22:43:00;9.65;;;2.35;;
58272;SDS011;44075;42.436;18.514;2022-09-30T22:45:28;7.93;;;2.20;;
58272;SDS011;44075;42.436;18.514;2022-09-30T22:47:54;8.45;;;2.05;;
58272;SDS011;44075;42.436;18.514;2022-09-30T22:50:22;9.55;;;2.13;;
58272;SDS011;44075;42.436;18.514;2022-09-30T22:52:50;7.78;;;2.15;;
58272;SDS011;44075;42.436;18.514;2022-09-30T22:55:22;8.02;;;2.08;;
58272;SDS011;44075;42.436;18.514;2022-09-30T22:57:48;9.02;;;1.95;;
58272;SDS011;44075;42.436;18.514;2022-09-30T23:00:14;12.63;;;2.53;;
58272;SDS011;44075;42.436;18.514;2022-09-30T23:02:41;9.13;;;2.13;;
58272;SDS011;44075;42.436;18.514;2022-09-30T23:05:07;7.53;;;1.90;;
58272;SDS011;44075;42.436;18.514;2022-09-30T23:07:33;11.57;;;2.30;;
58272;SDS011;44075;42.436;18.514;2022-09-30T23:10:02;8.63;;;2.22;;
58272;SDS011;44075;42.436;18.514;2022-09-30T23:12:28;11.38;;;2.10;;
58272;SDS011;44075;42.436;18.514;2022-09-30T23:14:56;10.70;;;3.05;;
58272;SDS011;44075;42.436;18.514;2022-09-30T23:17:22;8.55;;;2.08;;
58272;SDS011;44075;42.436;18.514;2022-09-30T23:19:49;9.07;;;2.40;;
58272;SDS011;44075;42.436;18.514;2022-09-30T23:22:15;11.82;;;2.50;;
58272;SDS011;44075;42.436;18.514;2022-09-30T23:24:42;10.88;;;2.38;;
58272;SDS011;44075;42.436;18.514;2022-09-30T23:27:08;9.60;;;2.13;;
58272;SDS011;44075;42.436;18.514;2022-09-30T23:29:34;11.27;;;2.03;;
58272;SDS011;44075;42.436;18.514;2022-09-30T23:32:00;7.78;;;2.08;;
58272;SDS011;44075;42.436;18.514;2022-09-30T23:34:26;11.02;;;2.33;;
58272;SDS011;44075;42.436;18.514;2022-09-30T23:36:53;12.00;;;2.45;;
58272;SDS011;44075;42.436;18.514;2022-09-30T23:39:19;10.85;;;2.70;;
58272;SDS011;44075;42.436;18.514;2022-09-30T23:41:46;10.07;;;2.92;;
58272;SDS011;44075;42.436;18.514;2022-09-30T23:44:15;10.38;;;2.95;;
58272;SDS011;44075;42.436;18.514;2022-09-30T23:46:44;9.50;;;2.35;;
58272;SDS011;44075;42.436;18.514;2022-09-30T23:49:30;10.38;;;2.10;;
58272;SDS011;44075;42.436;18.514;2022-09-30T23:52:03;9.93;;;2.40;;
58272;SDS011;44075;42.436;18.514;2022-09-30T23:54:30;9.82;;;2.30;;
58272;SDS011;44075;42.436;18.514;2022-09-30T23:56:56;8.60;;;1.88;;
58272;SDS011;44075;42.436;18.514;2022-09-30T23:59:23;6.47;;;2.00;;
